createdAt,value
2017-09-27T00:00:20.537Z,0.00
2017-09-27T00:01:20.503Z,0.00
2017-09-27T00:02:20.468Z,0.00
2017-09-27T00:03:20.437Z,0.00
2017-09-27T00:04:20.401Z,0.00
2017-09-27T00:05:20.362Z,0.00
2017-09-27T00:06:20.336Z,0.00
2017-09-27T00:07:20.299Z,0.00
2017-09-27T00:08:20.264Z,0.00
2017-09-27T00:09:20.231Z,0.00
2017-09-27T00:10:20.197Z,0.00
2017-09-27T00:11:20.163Z,0.00
2017-09-27T00:12:20.128Z,0.00
2017-09-27T00:13:20.094Z,0.00
2017-09-27T00:14:20.061Z,0.00
2017-09-27T00:15:20.027Z,0.00
2017-09-27T00:16:19.994Z,0.00
2017-09-27T00:17:19.958Z,0.00
2017-09-27T00:18:19.924Z,0.00
2017-09-27T00:19:19.892Z,0.00
2017-09-27T00:20:19.856Z,0.00
2017-09-27T00:21:19.822Z,0.00
2017-09-27T00:22:19.789Z,0.00
2017-09-27T00:23:19.755Z,0.00
2017-09-27T00:24:19.722Z,0.00
2017-09-27T00:25:19.687Z,0.00
2017-09-27T00:26:19.654Z,0.00
2017-09-27T00:27:19.621Z,0.00
2017-09-27T00:28:19.586Z,0.00
2017-09-27T00:29:19.551Z,0.00
2017-09-27T00:30:19.518Z,0.00
2017-09-27T00:31:19.485Z,0.00
2017-09-27T00:32:19.449Z,0.00
2017-09-27T00:33:19.415Z,0.00
2017-09-27T00:34:19.383Z,0.00
2017-09-27T00:35:19.350Z,0.00
2017-09-27T00:36:19.314Z,0.00
2017-09-27T00:37:19.279Z,0.00
2017-09-27T00:38:19.247Z,0.00
2017-09-27T00:39:19.324Z,0.00
2017-09-27T00:40:19.179Z,0.00
2017-09-27T00:41:19.150Z,0.00
2017-09-27T00:42:19.112Z,0.00
2017-09-27T00:43:19.603Z,0.00
2017-09-27T00:44:19.043Z,0.00
2017-09-27T00:45:19.008Z,0.00
2017-09-27T00:46:18.974Z,0.00
2017-09-27T00:47:18.944Z,0.00
2017-09-27T00:48:18.907Z,0.00
2017-09-27T00:49:18.873Z,0.00
2017-09-27T00:50:18.836Z,0.00
2017-09-27T00:51:18.806Z,0.00
2017-09-27T00:52:18.771Z,0.00
2017-09-27T00:53:18.736Z,0.00
2017-09-27T00:54:18.709Z,0.00
2017-09-27T00:55:18.670Z,0.00
2017-09-27T00:56:18.635Z,0.00
2017-09-27T00:57:18.601Z,0.00
2017-09-27T00:58:18.570Z,0.00
2017-09-27T00:59:18.532Z,0.00
2017-09-27T01:00:18.497Z,0.00
2017-09-27T01:01:18.464Z,0.00
2017-09-27T01:02:18.430Z,0.00
2017-09-27T01:03:18.397Z,0.00
2017-09-27T01:04:18.363Z,0.00
2017-09-27T01:05:18.330Z,0.00
2017-09-27T01:06:18.294Z,0.00
2017-09-27T01:07:18.262Z,0.00
2017-09-27T01:08:18.228Z,0.00
2017-09-27T01:09:18.190Z,0.00
2017-09-27T01:10:18.157Z,0.00
2017-09-27T01:11:18.125Z,0.00
2017-09-27T01:12:18.089Z,0.00
2017-09-27T01:13:18.054Z,0.00
2017-09-27T01:14:18.021Z,0.00
2017-09-27T01:15:17.987Z,0.00
2017-09-27T01:16:17.952Z,0.00
2017-09-27T01:17:17.921Z,0.00
2017-09-27T01:18:17.887Z,0.00
2017-09-27T01:19:17.851Z,0.00
2017-09-27T01:20:17.816Z,0.00
2017-09-27T01:21:17.782Z,0.00
2017-09-27T01:22:17.748Z,0.00
2017-09-27T01:23:17.714Z,0.00
2017-09-27T01:24:17.678Z,0.00
2017-09-27T01:25:17.644Z,0.00
2017-09-27T01:26:17.612Z,0.00
2017-09-27T01:27:17.576Z,0.00
2017-09-27T01:28:17.541Z,0.00
2017-09-27T01:29:17.506Z,0.00
2017-09-27T01:30:17.473Z,0.00
2017-09-27T01:31:17.438Z,0.00
2017-09-27T01:32:17.403Z,0.00
2017-09-27T01:33:17.370Z,0.00
2017-09-27T01:34:17.340Z,0.00
2017-09-27T01:35:17.302Z,0.00
2017-09-27T01:36:17.268Z,0.00
2017-09-27T01:37:17.233Z,0.00
2017-09-27T01:38:17.204Z,0.00
2017-09-27T01:39:17.164Z,0.00
2017-09-27T01:40:17.129Z,0.00
2017-09-27T01:41:17.094Z,0.00
2017-09-27T01:42:17.059Z,0.00
2017-09-27T01:43:17.027Z,0.00
2017-09-27T01:44:16.992Z,0.00
2017-09-27T01:45:16.958Z,0.00
2017-09-27T01:46:16.921Z,0.00
2017-09-27T01:47:16.888Z,0.00
2017-09-27T01:48:16.853Z,0.00
2017-09-27T01:49:16.819Z,0.00
2017-09-27T01:50:16.784Z,0.00
2017-09-27T01:51:16.748Z,0.00
2017-09-27T01:52:17.446Z,0.00
2017-09-27T01:53:16.683Z,0.00
2017-09-27T01:54:16.651Z,0.00
2017-09-27T01:55:16.610Z,0.00
2017-09-27T01:56:16.574Z,0.00
2017-09-27T01:57:16.541Z,0.00
2017-09-27T01:58:16.506Z,0.00
2017-09-27T01:59:16.472Z,0.00
2017-09-27T02:00:16.437Z,0.00
2017-09-27T02:01:16.402Z,0.00
2017-09-27T02:02:16.368Z,0.00
2017-09-27T02:03:16.332Z,0.00
2017-09-27T02:04:16.296Z,0.00
2017-09-27T02:05:16.262Z,0.00
2017-09-27T02:06:16.230Z,0.00
2017-09-27T02:07:16.194Z,0.00
2017-09-27T02:08:16.159Z,0.00
2017-09-27T02:09:16.124Z,0.00
2017-09-27T02:10:16.091Z,0.00
2017-09-27T02:11:16.055Z,0.00
2017-09-27T02:12:16.023Z,0.00
2017-09-27T02:13:15.989Z,0.00
2017-09-27T02:14:16.327Z,0.00
2017-09-27T02:15:15.917Z,0.00
2017-09-27T02:16:15.884Z,0.00
2017-09-27T02:17:15.848Z,0.00
2017-09-27T02:18:15.814Z,0.00
2017-09-27T02:19:15.779Z,0.00
2017-09-27T02:20:15.743Z,0.00
2017-09-27T02:21:15.711Z,0.00
2017-09-27T02:22:15.675Z,0.00
2017-09-27T02:23:15.640Z,0.00
2017-09-27T02:24:15.605Z,0.00
2017-09-27T02:25:15.571Z,0.00
2017-09-27T02:26:15.537Z,0.00
2017-09-27T02:27:15.504Z,0.00
2017-09-27T02:28:15.467Z,0.00
2017-09-27T02:29:15.433Z,0.00
2017-09-27T02:30:15.398Z,0.00
2017-09-27T02:31:15.367Z,0.00
2017-09-27T02:32:15.329Z,0.00
2017-09-27T02:33:15.291Z,0.00
2017-09-27T02:34:15.259Z,0.00
2017-09-27T02:35:15.225Z,0.00
2017-09-27T02:36:15.189Z,0.00
2017-09-27T02:37:15.155Z,0.00
2017-09-27T02:38:15.120Z,0.00
2017-09-27T02:39:15.086Z,0.00
2017-09-27T02:40:15.049Z,0.00
2017-09-27T02:41:15.016Z,0.00
2017-09-27T02:42:14.975Z,0.00
2017-09-27T02:43:14.953Z,0.00
2017-09-27T02:44:14.911Z,0.00
2017-09-27T02:45:14.875Z,0.00
2017-09-27T02:46:14.842Z,0.00
2017-09-27T02:47:14.807Z,0.00
2017-09-27T02:48:14.771Z,0.00
2017-09-27T02:49:14.737Z,0.00
2017-09-27T02:50:14.702Z,0.00
2017-09-27T02:51:14.708Z,0.00
2017-09-27T02:52:14.632Z,0.00
2017-09-27T02:53:14.598Z,0.00
2017-09-27T02:54:14.562Z,0.00
2017-09-27T02:55:14.526Z,0.00
2017-09-27T02:56:14.492Z,0.00
2017-09-27T02:57:14.458Z,0.00
2017-09-27T02:58:14.422Z,0.00
2017-09-27T02:59:14.390Z,0.00
2017-09-27T03:00:14.354Z,0.00
2017-09-27T03:01:14.317Z,0.00
2017-09-27T03:02:14.285Z,0.00
2017-09-27T03:03:14.250Z,0.00
2017-09-27T03:04:14.214Z,0.00
2017-09-27T03:05:14.179Z,0.00
2017-09-27T03:06:14.145Z,0.00
2017-09-27T03:07:14.120Z,0.00
2017-09-27T03:08:14.080Z,0.00
2017-09-27T03:09:14.040Z,0.00
2017-09-27T03:10:14.007Z,0.00
2017-09-27T03:11:13.972Z,0.00
2017-09-27T03:12:13.934Z,0.00
2017-09-27T03:13:13.902Z,0.00
2017-09-27T03:14:13.867Z,0.00
2017-09-27T03:15:13.833Z,0.00
2017-09-27T03:16:13.799Z,0.00
2017-09-27T03:17:13.765Z,0.00
2017-09-27T03:18:13.733Z,0.00
2017-09-27T03:19:13.694Z,0.00
2017-09-27T03:20:13.665Z,0.00
2017-09-27T03:21:13.624Z,0.00
2017-09-27T03:22:13.588Z,0.00
2017-09-27T03:23:13.555Z,0.00
2017-09-27T03:24:13.519Z,0.00
2017-09-27T03:25:13.484Z,0.00
2017-09-27T03:26:13.451Z,0.00
2017-09-27T03:27:13.416Z,0.00
2017-09-27T03:28:13.380Z,0.00
2017-09-27T03:29:13.346Z,0.00
2017-09-27T03:30:13.315Z,0.00
2017-09-27T03:31:13.395Z,0.00
2017-09-27T03:32:13.242Z,0.00
2017-09-27T03:33:13.210Z,0.00
2017-09-27T03:34:13.173Z,0.00
2017-09-27T03:35:13.139Z,0.00
2017-09-27T03:36:13.105Z,0.00
2017-09-27T03:37:13.073Z,0.00
2017-09-27T03:38:13.036Z,0.00
2017-09-27T03:39:13.000Z,0.00
2017-09-27T03:40:12.965Z,0.00
2017-09-27T03:41:12.930Z,0.00
2017-09-27T03:42:12.909Z,0.00
2017-09-27T03:43:12.862Z,0.00
2017-09-27T03:44:12.827Z,0.00
2017-09-27T03:45:12.792Z,0.00
2017-09-27T03:46:12.763Z,0.00
2017-09-27T03:47:12.723Z,0.00
2017-09-27T03:48:12.687Z,0.00
2017-09-27T03:49:12.652Z,0.00
2017-09-27T03:50:12.619Z,0.00
2017-09-27T03:51:12.596Z,0.00
2017-09-27T03:52:12.550Z,0.00
2017-09-27T03:53:12.522Z,0.00
2017-09-27T03:54:12.490Z,0.00
2017-09-27T03:55:12.445Z,0.00
2017-09-27T03:56:12.411Z,0.00
2017-09-27T03:57:12.376Z,0.00
2017-09-27T03:58:12.345Z,0.00
2017-09-27T03:59:12.306Z,0.00
2017-09-27T04:00:12.271Z,0.00
2017-09-27T04:01:12.236Z,0.00
2017-09-27T04:02:12.203Z,0.00
2017-09-27T04:03:12.168Z,0.00
2017-09-27T04:04:12.134Z,0.00
2017-09-27T04:05:12.098Z,0.00
2017-09-27T04:06:12.064Z,0.00
2017-09-27T04:07:12.031Z,0.00
2017-09-27T04:08:11.993Z,0.00
2017-09-27T04:09:11.960Z,0.00
2017-09-27T04:10:11.925Z,0.00
2017-09-27T04:11:11.894Z,0.00
2017-09-27T04:12:11.855Z,0.00
2017-09-27T04:13:11.820Z,0.00
2017-09-27T04:14:11.783Z,0.00
2017-09-27T04:15:11.749Z,0.00
2017-09-27T04:16:11.714Z,0.00
2017-09-27T04:17:11.679Z,0.00
2017-09-27T04:18:11.888Z,0.00
2017-09-27T04:19:11.613Z,0.00
2017-09-27T04:20:11.574Z,0.00
2017-09-27T04:21:11.541Z,0.00
2017-09-27T04:22:11.504Z,0.00
2017-09-27T04:23:11.473Z,0.00
2017-09-27T04:24:11.437Z,0.00
2017-09-27T04:25:11.400Z,0.00
2017-09-27T04:26:11.364Z,0.00
2017-09-27T04:27:11.330Z,0.00
2017-09-27T04:28:11.295Z,0.00
2017-09-27T04:29:11.260Z,0.00
2017-09-27T04:30:11.227Z,0.00
2017-09-27T04:31:11.189Z,0.00
2017-09-27T04:32:11.154Z,0.00
2017-09-27T04:33:11.120Z,0.00
2017-09-27T04:34:11.083Z,0.00
2017-09-27T04:35:11.050Z,0.00
2017-09-27T04:36:11.015Z,0.00
2017-09-27T04:37:10.979Z,0.00
2017-09-27T04:38:10.945Z,0.00
2017-09-27T04:39:10.909Z,0.00
2017-09-27T04:40:10.875Z,0.00
2017-09-27T04:41:10.841Z,0.00
2017-09-27T04:42:10.803Z,0.00
2017-09-27T04:43:10.770Z,0.00
2017-09-27T04:44:10.735Z,0.00
2017-09-27T04:45:10.702Z,0.00
2017-09-27T04:46:10.665Z,0.00
2017-09-27T04:47:10.631Z,0.00
2017-09-27T04:48:10.594Z,0.00
2017-09-27T04:49:10.559Z,0.00
2017-09-27T04:50:10.525Z,0.00
2017-09-27T04:51:10.490Z,0.00
2017-09-27T04:52:10.454Z,0.00
2017-09-27T04:53:10.419Z,0.00
2017-09-27T04:54:10.384Z,0.00
2017-09-27T04:55:10.350Z,0.00
2017-09-27T04:56:10.318Z,0.00
2017-09-27T04:57:10.964Z,0.00
2017-09-27T04:58:10.243Z,0.00
2017-09-27T04:59:10.209Z,0.00
2017-09-27T05:00:10.167Z,4.00
2017-09-27T05:01:10.140Z,4.00
2017-09-27T05:02:10.103Z,0.00
2017-09-27T05:03:10.072Z,4.00
2017-09-27T05:04:10.032Z,4.00
2017-09-27T05:05:10.002Z,4.00
2017-09-27T05:06:10.172Z,4.00
2017-09-27T05:07:09.928Z,4.00
2017-09-27T05:08:09.893Z,8.00
2017-09-27T05:09:09.858Z,8.00
2017-09-27T05:10:09.824Z,8.00
2017-09-27T05:11:09.787Z,8.00
2017-09-27T05:12:09.753Z,12.00
2017-09-27T05:13:09.717Z,12.00
2017-09-27T05:14:09.683Z,16.00
2017-09-27T05:15:09.648Z,20.00
2017-09-27T05:16:09.613Z,20.00
2017-09-27T05:17:09.577Z,24.00
2017-09-27T05:18:09.543Z,28.00
2017-09-27T05:19:09.507Z,32.00
2017-09-27T05:20:09.469Z,40.00
2017-09-27T05:21:09.430Z,40.00
2017-09-27T05:22:09.409Z,48.00
2017-09-27T05:23:09.368Z,52.00
2017-09-27T05:24:09.330Z,60.00
2017-09-27T05:25:09.297Z,68.00
2017-09-27T05:26:09.259Z,72.00
2017-09-27T05:27:09.220Z,80.00
2017-09-27T05:28:09.188Z,92.00
2017-09-27T05:29:09.154Z,100.00
2017-09-27T05:30:09.118Z,112.00
2017-09-27T05:31:09.087Z,124.00
2017-09-27T05:32:09.048Z,132.00
2017-09-27T05:33:09.013Z,144.00
2017-09-27T05:34:08.979Z,156.00
2017-09-27T05:35:08.943Z,168.00
2017-09-27T05:36:08.908Z,184.00
2017-09-27T05:37:08.872Z,196.00
2017-09-27T05:38:08.839Z,216.00
2017-09-27T05:39:08.802Z,228.00
2017-09-27T05:40:08.777Z,244.00
2017-09-27T05:41:08.740Z,264.00
2017-09-27T05:43:40.766Z,308.00
2017-09-27T05:44:40.702Z,328.00
2017-09-27T05:46:34.044Z,368.00
2017-09-27T05:47:33.974Z,388.00
2017-09-27T05:49:27.292Z,432.00
2017-09-27T05:50:27.244Z,460.00
2017-09-27T05:52:20.588Z,508.00
2017-09-27T05:53:20.514Z,540.00
2017-09-27T05:54:20.480Z,568.00
2017-09-27T05:55:20.446Z,600.00
2017-09-27T05:56:20.411Z,636.00
2017-09-27T05:57:20.377Z,664.00
2017-09-27T05:58:21.151Z,700.00
2017-09-27T05:59:20.310Z,732.00
2017-09-27T06:00:20.270Z,764.00
2017-09-27T06:01:20.236Z,788.00
2017-09-27T06:02:20.202Z,812.00
2017-09-27T06:03:20.167Z,852.00
2017-09-27T06:04:20.132Z,928.00
2017-09-27T06:05:20.098Z,1000.00
2017-09-27T06:06:20.062Z,1056.00
2017-09-27T06:07:20.026Z,1104.00
2017-09-27T06:08:19.995Z,1156.00
2017-09-27T06:09:19.961Z,1204.00
2017-09-27T06:10:19.923Z,1260.00
2017-09-27T06:11:19.889Z,1316.00
2017-09-27T06:12:19.857Z,1380.00
2017-09-27T06:13:19.821Z,1428.00
2017-09-27T06:14:19.786Z,1480.00
2017-09-27T06:15:19.751Z,1540.00
2017-09-27T06:16:19.718Z,1588.00
2017-09-27T06:17:19.682Z,1640.00
2017-09-27T06:18:19.648Z,1688.00
2017-09-27T06:19:19.612Z,1736.00
2017-09-27T06:20:19.580Z,1792.00
2017-09-27T06:21:19.545Z,1840.00
2017-09-27T06:22:19.512Z,1896.00
2017-09-27T06:23:19.479Z,1956.00
2017-09-27T06:24:19.443Z,2008.00
2017-09-27T06:25:19.408Z,2064.00
2017-09-27T06:26:19.372Z,2116.00
2017-09-27T06:27:19.341Z,2172.00
2017-09-27T06:28:19.307Z,2240.00
2017-09-27T06:29:19.276Z,2292.00
2017-09-27T06:30:19.239Z,2356.00
2017-09-27T06:31:19.207Z,2428.00
2017-09-27T06:32:19.171Z,2496.00
2017-09-27T06:33:19.136Z,2552.00
2017-09-27T06:34:19.103Z,2608.00
2017-09-27T06:35:19.070Z,2684.00
2017-09-27T06:36:19.036Z,2752.00
2017-09-27T06:37:19.002Z,2824.00
2017-09-27T06:38:18.980Z,2916.00
2017-09-27T06:39:18.936Z,3052.00
2017-09-27T06:40:18.902Z,3124.00
2017-09-27T06:41:18.869Z,3200.00
2017-09-27T06:42:18.838Z,3268.00
2017-09-27T06:43:18.807Z,3348.00
2017-09-27T06:44:18.773Z,3516.00
2017-09-27T06:45:18.738Z,3708.00
2017-09-27T06:46:18.706Z,3968.00
2017-09-27T06:47:18.674Z,4172.00
2017-09-27T06:48:18.641Z,4300.00
2017-09-27T06:49:18.608Z,4412.00
2017-09-27T06:50:18.577Z,4572.00
2017-09-27T06:51:18.544Z,4688.00
2017-09-27T06:52:18.513Z,4808.00
2017-09-27T06:53:18.489Z,4896.00
2017-09-27T06:54:18.449Z,4984.00
2017-09-27T06:55:18.416Z,5060.00
2017-09-27T06:56:18.387Z,5108.00
2017-09-27T06:57:18.355Z,5144.00
2017-09-27T06:58:18.324Z,5256.00
2017-09-27T06:59:18.291Z,5316.00
2017-09-27T07:00:18.261Z,5364.00
2017-09-27T07:01:18.231Z,5408.00
2017-09-27T07:02:18.199Z,5468.00
2017-09-27T07:03:18.167Z,5496.00
2017-09-27T07:04:18.139Z,5544.00
2017-09-27T07:05:18.107Z,5612.00
2017-09-27T07:06:18.077Z,5696.00
2017-09-27T07:07:18.051Z,5804.00
2017-09-27T07:08:18.026Z,5872.00
2017-09-27T07:09:17.987Z,5824.00
2017-09-27T07:10:17.956Z,5848.00
2017-09-27T07:11:17.926Z,5908.00
2017-09-27T07:12:17.897Z,5956.00
2017-09-27T07:13:17.867Z,6000.00
2017-09-27T07:14:17.839Z,6052.00
2017-09-27T07:15:17.809Z,6152.00
2017-09-27T07:16:17.780Z,6192.00
2017-09-27T07:17:17.753Z,6244.00
2017-09-27T07:18:17.729Z,6308.00
2017-09-27T07:19:17.697Z,6408.00
2017-09-27T07:20:17.666Z,6500.00
2017-09-27T07:21:17.636Z,6588.00
2017-09-27T07:22:17.614Z,6696.00
2017-09-27T07:23:17.581Z,6780.00
2017-09-27T07:24:17.553Z,6812.00
2017-09-27T07:25:17.523Z,6856.00
2017-09-27T07:26:17.498Z,6912.00
2017-09-27T07:27:17.470Z,6960.00
2017-09-27T07:28:17.442Z,6988.00
2017-09-27T07:29:17.414Z,7096.00
2017-09-27T07:30:17.387Z,7136.00
2017-09-27T07:31:17.362Z,7140.00
2017-09-27T07:32:17.333Z,7188.00
2017-09-27T07:33:17.307Z,7256.00
2017-09-27T07:34:17.281Z,7376.00
2017-09-27T07:35:17.255Z,7528.00
2017-09-27T07:36:17.226Z,7524.00
2017-09-27T07:37:17.200Z,7608.00
2017-09-27T07:38:17.173Z,7496.00
2017-09-27T07:39:17.149Z,7448.00
2017-09-27T07:40:17.121Z,7564.00
2017-09-27T07:41:17.095Z,6712.00
2017-09-27T07:42:17.069Z,7904.00
2017-09-27T07:43:17.041Z,8336.00
2017-09-27T07:44:17.017Z,8516.00
2017-09-27T07:45:16.992Z,8588.00
2017-09-27T07:46:16.965Z,8456.00
2017-09-27T07:47:16.940Z,8432.00
2017-09-27T07:48:16.915Z,8500.00
2017-09-27T07:49:16.888Z,8756.00
2017-09-27T07:50:16.863Z,8840.00
2017-09-27T07:51:16.836Z,9140.00
2017-09-27T07:52:16.812Z,9292.00
2017-09-27T07:53:16.792Z,9516.00
2017-09-27T07:54:16.761Z,9516.00
2017-09-27T07:55:16.737Z,9272.00
2017-09-27T07:56:16.712Z,9264.00
2017-09-27T07:57:16.686Z,9144.00
2017-09-27T07:58:16.662Z,9260.00
2017-09-27T07:59:16.637Z,9288.00
2017-09-27T08:00:16.612Z,9232.00
2017-09-27T08:01:16.587Z,9120.00
2017-09-27T08:02:16.564Z,9068.00
2017-09-27T08:03:16.538Z,9004.00
2017-09-27T08:04:16.515Z,8928.00
2017-09-27T08:05:16.496Z,8212.00
2017-09-27T08:06:16.469Z,8624.00
2017-09-27T08:07:16.446Z,8288.00
2017-09-27T08:08:16.420Z,9056.00
2017-09-27T08:09:16.397Z,9056.00
2017-09-27T08:10:16.372Z,9064.00
2017-09-27T08:11:16.348Z,9292.00
2017-09-27T08:12:16.329Z,9452.00
2017-09-27T08:13:16.302Z,9544.00
2017-09-27T08:14:16.279Z,9524.00
2017-09-27T08:15:16.257Z,9552.00
2017-09-27T08:16:16.233Z,9628.00
2017-09-27T08:17:16.215Z,9728.00
2017-09-27T08:18:16.188Z,9780.00
2017-09-27T08:19:16.165Z,9888.00
2017-09-27T08:20:16.142Z,9968.00
2017-09-27T08:21:16.120Z,9936.00
2017-09-27T08:22:16.096Z,9892.00
2017-09-27T08:23:16.075Z,9964.00
2017-09-27T08:24:16.055Z,10032.00
2017-09-27T08:25:16.033Z,10096.00
2017-09-27T08:26:16.010Z,10180.00
2017-09-27T08:27:15.989Z,10340.00
2017-09-27T08:28:15.966Z,10420.00
2017-09-27T08:29:15.944Z,10488.00
2017-09-27T08:30:15.922Z,10548.00
2017-09-27T08:31:15.903Z,10432.00
2017-09-27T08:32:15.881Z,10392.00
2017-09-27T08:33:15.857Z,10420.00
2017-09-27T08:34:15.837Z,10436.00
2017-09-27T08:35:15.816Z,10344.00
2017-09-27T08:36:15.795Z,10388.00
2017-09-27T08:37:15.772Z,10532.00
2017-09-27T08:38:15.755Z,10548.00
2017-09-27T08:39:15.731Z,10548.00
2017-09-27T08:40:15.710Z,10640.00
2017-09-27T08:41:15.687Z,10924.00
2017-09-27T08:42:15.666Z,10712.00
2017-09-27T08:43:15.641Z,10868.00
2017-09-27T08:44:15.624Z,10868.00
2017-09-27T08:45:15.603Z,10852.00
2017-09-27T08:46:15.582Z,10888.00
2017-09-27T08:47:15.561Z,10900.00
2017-09-27T08:48:15.542Z,11024.00
2017-09-27T08:49:15.524Z,11060.00
2017-09-27T08:50:15.502Z,11032.00
2017-09-27T08:51:15.479Z,11160.00
2017-09-27T08:52:15.459Z,11184.00
2017-09-27T08:53:15.438Z,11268.00
2017-09-27T08:54:15.418Z,11368.00
2017-09-27T08:55:15.397Z,11624.00
2017-09-27T08:56:15.377Z,11424.00
2017-09-27T08:57:15.356Z,11452.00
2017-09-27T08:58:15.337Z,11516.00
2017-09-27T08:59:15.318Z,11544.00
2017-09-27T09:00:15.297Z,11596.00
2017-09-27T09:01:15.278Z,11676.00
2017-09-27T09:02:15.256Z,11708.00
2017-09-27T09:03:15.236Z,11848.00
2017-09-27T09:04:15.217Z,11924.00
2017-09-27T09:05:15.197Z,11948.00
2017-09-27T09:06:15.176Z,12032.00
2017-09-27T09:07:15.160Z,12004.00
2017-09-27T09:08:15.137Z,12072.00
2017-09-27T09:09:15.116Z,12104.00
2017-09-27T09:10:15.096Z,12144.00
2017-09-27T09:11:15.087Z,12184.00
2017-09-27T09:12:15.056Z,12172.00
2017-09-27T09:13:15.047Z,12212.00
2017-09-27T09:14:15.017Z,12324.00
2017-09-27T09:15:14.998Z,12408.00
2017-09-27T09:16:14.980Z,12472.00
2017-09-27T09:17:14.965Z,12484.00
2017-09-27T09:18:14.938Z,12520.00
2017-09-27T09:19:14.920Z,12540.00
2017-09-27T09:20:14.900Z,12584.00
2017-09-27T09:21:14.879Z,12640.00
2017-09-27T09:22:14.860Z,12572.00
2017-09-27T09:23:14.841Z,12640.00
2017-09-27T09:24:14.822Z,12596.00
2017-09-27T09:25:14.802Z,12612.00
2017-09-27T09:26:14.782Z,12724.00
2017-09-27T09:27:14.764Z,12780.00
2017-09-27T09:28:14.748Z,12864.00
2017-09-27T09:29:14.726Z,12968.00
2017-09-27T09:30:14.707Z,12996.00
2017-09-27T09:31:14.688Z,12996.00
2017-09-27T09:32:14.668Z,12984.00
2017-09-27T09:33:14.651Z,13060.00
2017-09-27T09:34:14.631Z,13080.00
2017-09-27T09:35:14.612Z,13136.00
2017-09-27T09:36:14.594Z,13072.00
2017-09-27T09:37:14.575Z,13140.00
2017-09-27T09:38:14.557Z,13248.00
2017-09-27T09:39:14.538Z,13300.00
2017-09-27T09:40:14.520Z,13292.00
2017-09-27T09:41:14.507Z,13152.00
2017-09-27T09:42:14.485Z,13308.00
2017-09-27T09:43:14.466Z,13268.00
2017-09-27T09:44:14.448Z,13308.00
2017-09-27T09:45:14.428Z,13360.00
2017-09-27T09:46:14.505Z,13460.00
2017-09-27T09:47:14.393Z,13476.00
2017-09-27T09:48:14.375Z,13460.00
2017-09-27T09:49:14.357Z,13520.00
2017-09-27T09:50:14.338Z,13520.00
2017-09-27T09:51:14.324Z,13568.00
2017-09-27T09:52:14.302Z,13644.00
2017-09-27T09:53:14.285Z,13604.00
2017-09-27T09:54:14.268Z,13604.00
2017-09-27T09:55:14.250Z,13612.00
2017-09-27T09:56:14.233Z,13764.00
2017-09-27T09:57:14.215Z,13748.00
2017-09-27T09:58:14.198Z,13784.00
2017-09-27T09:59:14.180Z,13800.00
2017-09-27T10:00:14.164Z,13880.00
2017-09-27T10:01:14.146Z,14044.00
2017-09-27T10:02:14.129Z,14112.00
2017-09-27T10:03:14.111Z,14128.00
2017-09-27T10:04:14.094Z,14336.00
2017-09-27T10:05:14.078Z,14432.00
2017-09-27T10:06:14.059Z,14528.00
2017-09-27T10:07:14.043Z,14560.00
2017-09-27T10:08:14.024Z,14656.00
2017-09-27T10:09:14.023Z,14784.00
2017-09-27T10:10:13.989Z,14880.00
2017-09-27T10:11:13.976Z,15040.00
2017-09-27T10:12:13.954Z,15008.00
2017-09-27T10:13:13.936Z,14944.00
2017-09-27T10:14:13.921Z,15040.00
2017-09-27T10:15:13.902Z,15136.00
2017-09-27T10:16:13.886Z,15328.00
2017-09-27T10:17:13.869Z,15360.00
2017-09-27T10:18:13.853Z,15424.00
2017-09-27T10:19:13.840Z,15424.00
2017-09-27T10:20:13.818Z,15360.00
2017-09-27T10:21:13.802Z,15232.00
2017-09-27T10:22:13.785Z,14624.00
2017-09-27T10:23:13.768Z,13804.00
2017-09-27T10:24:13.751Z,14016.00
2017-09-27T10:25:13.738Z,14528.00
2017-09-27T10:26:13.719Z,12720.00
2017-09-27T10:27:13.699Z,13128.00
2017-09-27T10:28:13.683Z,12820.00
2017-09-27T10:29:13.663Z,12088.00
2017-09-27T10:30:13.647Z,10280.00
2017-09-27T10:31:13.632Z,11396.00
2017-09-27T10:32:14.004Z,12748.00
2017-09-27T10:33:13.594Z,11420.00
2017-09-27T10:34:13.578Z,16064.00
2017-09-27T10:35:13.559Z,16096.00
2017-09-27T10:36:13.540Z,16192.00
2017-09-27T10:37:13.534Z,16160.00
2017-09-27T10:38:13.504Z,16544.00
2017-09-27T10:39:13.486Z,16704.00
2017-09-27T10:40:13.468Z,11048.00
2017-09-27T10:41:13.450Z,13748.00
2017-09-27T10:42:13.432Z,15008.00
2017-09-27T10:43:13.413Z,10980.00
2017-09-27T10:44:13.397Z,11040.00
2017-09-27T10:45:13.378Z,10588.00
2017-09-27T10:46:13.360Z,10792.00
2017-09-27T10:47:13.361Z,14020.00
2017-09-27T10:48:13.322Z,11888.00
2017-09-27T10:49:13.303Z,14560.00
2017-09-27T10:50:13.285Z,10764.00
2017-09-27T10:51:13.267Z,15584.00
2017-09-27T10:52:13.249Z,16160.00
2017-09-27T10:53:13.230Z,15872.00
2017-09-27T10:54:13.500Z,15488.00
2017-09-27T10:55:13.196Z,14912.00
2017-09-27T10:56:13.177Z,15648.00
2017-09-27T10:57:13.158Z,15040.00
2017-09-27T10:58:13.142Z,15136.00
2017-09-27T10:59:13.123Z,14720.00
2017-09-27T11:00:13.107Z,13908.00
2017-09-27T11:01:13.087Z,14912.00
2017-09-27T11:02:13.070Z,14688.00
2017-09-27T11:03:13.053Z,14656.00
2017-09-27T11:04:13.037Z,14528.00
2017-09-27T11:05:13.020Z,13512.00
2017-09-27T11:06:13.006Z,14368.00
2017-09-27T11:07:12.979Z,14464.00
2017-09-27T11:08:12.973Z,14656.00
2017-09-27T11:09:12.953Z,14752.00
2017-09-27T11:10:12.935Z,14816.00
2017-09-27T11:11:12.920Z,14848.00
2017-09-27T11:12:12.904Z,14784.00
2017-09-27T11:13:12.885Z,14336.00
2017-09-27T11:14:12.871Z,14304.00
2017-09-27T11:15:12.856Z,14368.00
2017-09-27T11:16:12.839Z,14400.00
2017-09-27T11:17:12.823Z,14272.00
2017-09-27T11:18:12.807Z,14560.00
2017-09-27T11:19:12.797Z,14528.00
2017-09-27T11:20:12.775Z,14528.00
2017-09-27T11:21:12.761Z,14496.00
2017-09-27T11:22:12.744Z,14528.00
2017-09-27T11:23:12.729Z,14528.00
2017-09-27T11:24:12.713Z,14400.00
2017-09-27T11:25:12.698Z,14528.00
2017-09-27T11:26:12.682Z,14560.00
2017-09-27T11:27:12.667Z,14784.00
2017-09-27T11:28:12.653Z,14560.00
2017-09-27T11:29:12.636Z,14464.00
2017-09-27T11:30:12.621Z,14208.00
2017-09-27T11:31:12.606Z,14336.00
2017-09-27T11:32:12.590Z,14176.00
2017-09-27T11:33:12.574Z,14304.00
2017-09-27T11:34:12.565Z,14240.00
2017-09-27T11:35:12.995Z,14112.00
2017-09-27T11:36:12.529Z,14400.00
2017-09-27T11:37:12.513Z,14208.00
2017-09-27T11:38:12.498Z,14304.00
2017-09-27T11:39:12.483Z,14208.00
2017-09-27T11:40:12.468Z,14400.00
2017-09-27T11:41:12.453Z,14080.00
2017-09-27T11:42:13.525Z,13920.00
2017-09-27T11:43:12.421Z,13824.00
2017-09-27T11:44:12.407Z,14048.00
2017-09-27T11:45:12.389Z,14144.00
2017-09-27T11:46:12.375Z,14048.00
2017-09-27T11:47:12.361Z,14304.00
2017-09-27T11:48:12.346Z,14304.00
2017-09-27T11:49:12.334Z,14368.00
2017-09-27T11:50:12.314Z,14400.00
2017-09-27T11:51:12.300Z,14400.00
2017-09-27T11:52:12.285Z,14304.00
2017-09-27T11:53:12.271Z,13984.00
2017-09-27T11:54:12.646Z,13824.00
2017-09-27T11:55:12.243Z,13984.00
2017-09-27T11:56:12.227Z,13920.00
2017-09-27T11:57:12.212Z,13760.00
2017-09-27T11:58:12.200Z,14016.00
2017-09-27T11:59:12.184Z,14624.00
2017-09-27T12:00:12.171Z,14592.00
2017-09-27T12:01:12.157Z,14272.00
2017-09-27T12:02:12.151Z,14208.00
2017-09-27T12:03:12.126Z,14240.00
2017-09-27T12:04:12.113Z,14432.00
2017-09-27T12:05:12.097Z,15040.00
2017-09-27T12:06:12.083Z,15168.00
2017-09-27T12:07:12.075Z,14496.00
2017-09-27T12:08:12.056Z,14432.00
2017-09-27T12:09:12.050Z,14304.00
2017-09-27T12:10:12.029Z,14496.00
2017-09-27T12:11:12.014Z,14368.00
2017-09-27T12:12:12.001Z,14016.00
2017-09-27T12:13:11.986Z,13984.00
2017-09-27T12:14:12.038Z,13676.00
2017-09-27T12:15:11.964Z,13676.00
2017-09-27T12:16:12.122Z,13744.00
2017-09-27T12:17:11.930Z,13920.00
2017-09-27T12:18:11.916Z,13784.00
2017-09-27T12:19:11.908Z,14144.00
2017-09-27T12:20:11.886Z,14144.00
2017-09-27T12:21:11.874Z,13952.00
2017-09-27T12:22:11.862Z,13824.00
2017-09-27T12:23:12.419Z,13656.00
2017-09-27T12:24:11.835Z,13736.00
2017-09-27T12:25:11.820Z,13788.00
2017-09-27T12:26:11.806Z,13500.00
2017-09-27T12:27:11.792Z,13952.00
2017-09-27T12:28:11.779Z,13812.00
2017-09-27T12:29:11.765Z,13800.00
2017-09-27T12:30:11.763Z,13640.00
2017-09-27T12:31:11.737Z,13488.00
2017-09-27T12:32:11.724Z,13460.00